Time;durP1;ratioP1;P1;durP2;ratioP2;P2;SDS_P1;SDS_P2;PMS_P1;PMS_P2;Temp;Humidity;BMP_temperature;BMP_pressure;BME280_temperature;BME280_humidity;BME280_pressure;Samples;Min_cycle;Max_cycle;Signal;HPM_P1;HPM_P2
2022/04/01 00:00:55;;;;;;;3.50;2.17;;;5.90;70.60;;;;;;5011743;28;20213;-82
2022/04/01 00:03:21;;;;;;;1.87;1.77;;;5.90;70.80;;;;;;5018201;28;20199;-82
2022/04/01 00:05:49;;;;;;;4.30;2.60;;;5.90;71.20;;;;;;5032072;28;20574;-82
2022/04/01 00:08:16;;;;;;;1.97;1.87;;;5.80;71.60;;;;;;5031402;28;20598;-83
2022/04/01 00:10:43;;;;;;;2.10;2.00;;;5.80;71.70;;;;;;5031870;28;20209;-83
2022/04/01 00:13:10;;;;;;;3.83;2.27;;;5.90;71.90;;;;;;5031883;28;20205;-83
2022/04/01 00:15:36;;;;;;;3.33;2.37;;;5.80;72.00;;;;;;5032036;28;20205;-83
2022/04/01 00:18:04;;;;;;;2.50;2.23;;;5.70;72.50;;;;;;5032099;28;20555;-83
2022/04/01 00:20:31;;;;;;;4.30;2.27;;;5.60;73.10;;;;;;5049538;28;20302;-83
2022/04/01 00:22:59;;;;;;;3.50;2.40;;;5.50;73.40;;;;;;5045601;28;20208;-83
2022/04/01 00:25:26;;;;;;;2.63;2.43;;;5.60;73.90;;;;;;5031841;28;20205;-83
2022/04/01 00:27:54;;;;;;;2.33;2.13;;;5.60;73.90;;;;;;5031527;28;20678;-83
2022/04/01 00:30:21;;;;;;;2.57;2.17;;;5.60;73.80;;;;;;5031705;28;20270;-83
2022/04/01 00:32:48;;;;;;;3.50;2.07;;;5.60;73.60;;;;;;5031231;28;20212;-80
2022/04/01 00:35:15;;;;;;;2.40;2.20;;;5.70;74.20;;;;;;5030986;28;20213;-80
2022/04/01 00:37:42;;;;;;;4.03;2.13;;;5.50;73.90;;;;;;5031167;28;20625;-81
2022/04/01 00:40:12;;;;;;;3.90;2.57;;;5.50;74.10;;;;;;5031202;28;20263;-81
2022/04/01 00:42:40;;;;;;;2.40;2.17;;;5.40;74.30;;;;;;5030743;28;20197;-82
2022/04/01 00:45:08;;;;;;;2.80;2.60;;;5.40;74.60;;;;;;5030797;28;20216;-81
2022/04/01 00:47:35;;;;;;;3.63;2.27;;;5.50;74.40;;;;;;5030993;28;20726;-82
2022/04/01 00:50:02;;;;;;;3.47;2.47;;;5.50;74.10;;;;;;5030792;28;20236;-81
2022/04/01 00:52:30;;;;;;;2.80;2.60;;;5.50;74.30;;;;;;5025526;28;20308;-81
2022/04/01 00:54:56;;;;;;;2.27;2.07;;;5.40;74.10;;;;;;5011361;28;20254;-82
2022/04/01 00:57:25;;;;;;;3.93;2.10;;;5.50;74.40;;;;;;5011001;28;20389;-78
2022/04/01 00:59:54;;;;;;;3.17;2.77;;;5.40;74.30;;;;;;5029504;28;20290;-78
2022/04/01 01:02:21;;;;;;;2.33;2.17;;;5.30;74.00;;;;;;5030211;28;20304;-78
2022/04/01 01:04:48;;;;;;;2.03;1.93;;;5.20;74.00;;;;;;5030191;28;20283;-79
2022/04/01 01:07:15;;;;;;;2.63;2.40;;;5.20;74.00;;;;;;5030488;28;20204;-78
2022/04/01 01:09:43;;;;;;;2.50;2.30;;;5.20;73.40;;;;;;5030264;28;20282;-78
2022/04/01 01:12:11;;;;;;;3.30;2.20;;;5.10;73.60;;;;;;5030137;28;20243;-78
2022/04/01 01:14:41;;;;;;;2.20;1.77;;;5.10;74.00;;;;;;5029697;28;20653;-79
2022/04/01 01:17:11;;;;;;;2.57;2.03;;;5.10;74.30;;;;;;5029610;28;20205;-79
2022/04/01 01:19:38;;;;;;;2.87;2.07;;;5.10;74.20;;;;;;5029725;28;20289;-78
2022/04/01 01:22:06;;;;;;;2.77;2.33;;;5.10;74.30;;;;;;5030413;28;20642;-78
2022/04/01 01:24:36;;;;;;;2.07;1.83;;;5.10;73.90;;;;;;5027636;28;20699;-78
2022/04/01 01:27:05;;;;;;;2.53;1.90;;;5.00;73.90;;;;;;5049830;28;20207;-79
2022/04/01 01:29:33;;;;;;;3.50;1.90;;;4.90;74.00;;;;;;5049488;28;20228;-77
2022/04/01 01:32:01;;;;;;;3.37;1.90;;;4.90;74.00;;;;;;5035236;28;20208;-79
2022/04/01 01:34:29;;;;;;;2.43;1.90;;;4.90;74.90;;;;;;5029686;28;20213;-79
2022/04/01 01:36:56;;;;;;;2.83;2.20;;;4.90;74.40;;;;;;5029319;28;20549;-79
2022/04/01 01:39:23;;;;;;;2.77;2.07;;;5.00;75.40;;;;;;5029411;28;20762;-79
2022/04/01 01:41:53;;;;;;;2.40;2.00;;;5.10;74.70;;;;;;5028903;28;20742;-78
2022/04/01 01:44:21;;;;;;;2.20;2.00;;;5.00;74.40;;;;;;5029361;28;20296;-79
2022/04/01 01:46:48;;;;;;;2.10;1.90;;;4.90;75.20;;;;;;5029338;28;20303;-82
2022/04/01 01:49:15;;;;;;;2.17;1.90;;;4.80;74.50;;;;;;5029602;28;20719;-83
2022/04/01 01:54:43;;;;;;;2.93;1.87;;;4.70;74.70;;;;;;5027920;28;20219;-83
2022/04/01 01:57:12;;;;;;;4.27;2.07;;;4.70;75.20;;;;;;5030204;28;20251;-84
2022/04/01 01:59:38;;;;;;;2.17;2.00;;;4.60;75.60;;;;;;5029750;28;20232;-83
2022/04/01 02:02:07;;;;;;;2.10;2.00;;;4.70;75.30;;;;;;5029893;28;20201;-83
2022/04/01 02:04:35;;;;;;;2.27;2.07;;;4.80;75.20;;;;;;5029907;28;20213;-82
2022/04/01 02:07:01;;;;;;;1.90;1.70;;;4.80;75.60;;;;;;5029854;28;20205;-83
2022/04/01 02:09:28;;;;;;;2.63;2.40;;;4.70;75.30;;;;;;5029487;28;20310;-82
2022/04/01 02:11:54;;;;;;;2.47;2.03;;;4.80;75.40;;;;;;5029068;28;20663;-83
2022/04/01 02:14:22;;;;;;;2.17;2.00;;;4.80;75.40;;;;;;5028929;28;20212;-83
2022/04/01 02:16:49;;;;;;;2.50;1.90;;;4.80;75.60;;;;;;5029661;28;20799;-82
2022/04/01 02:19:21;;;;;;;2.17;1.97;;;4.60;75.40;;;;;;5036798;28;20240;-82
2022/04/01 02:21:48;;;;;;;2.80;1.97;;;4.60;75.40;;;;;;5032295;28;20217;-82
2022/04/01 02:24:17;;;;;;;3.30;2.07;;;4.50;75.80;;;;;;5029558;28;20262;-84
2022/04/01 02:26:44;;;;;;;2.20;2.00;;;4.60;75.80;;;;;;5030156;28;20624;-85
2022/04/01 02:29:11;;;;;;;2.30;2.10;;;4.70;75.90;;;;;;5029751;28;20236;-85
2022/04/01 02:31:39;;;;;;;3.23;2.30;;;4.60;76.10;;;;;;5029160;28;20247;-81
2022/04/01 02:34:06;;;;;;;2.40;2.20;;;4.60;76.30;;;;;;5028885;28;20212;-81
2022/04/01 02:36:33;;;;;;;4.17;2.20;;;4.70;76.50;;;;;;5028682;28;20637;-81
2022/04/01 02:39:01;;;;;;;2.30;2.10;;;4.50;76.50;;;;;;5028478;28;20239;-81
2022/04/01 02:41:29;;;;;;;4.30;2.30;;;4.50;76.80;;;;;;5028156;28;20204;-82
2022/04/01 02:44:08;;;;;;;2.27;2.13;;;4.40;76.50;;;;;;5028514;28;20290;-80
2022/04/01 02:46:35;;;;;;;2.80;2.27;;;4.50;76.90;;;;;;5028745;28;20236;-81
2022/04/01 02:49:06;;;;;;;2.63;2.10;;;4.30;76.60;;;;;;5028742;28;20236;-81
2022/04/01 02:51:34;;;;;;;3.00;2.00;;;4.20;77.10;;;;;;5028282;28;20225;-81
2022/04/01 02:54:03;;;;;;;3.67;2.30;;;4.10;77.20;;;;;;5022267;28;20213;-81
2022/04/01 02:56:30;;;;;;;3.73;2.10;;;4.10;77.00;;;;;;5028515;28;20212;-81
2022/04/01 02:58:57;;;;;;;2.57;2.07;;;4.20;77.50;;;;;;5028366;28;20200;-78
2022/04/01 03:01:23;;;;;;;5.13;2.27;;;4.20;77.60;;;;;;5028751;28;20787;-82
2022/04/01 03:03:50;;;;;;;2.60;2.37;;;4.30;76.90;;;;;;5029113;28;20200;-78
2022/04/01 03:06:18;;;;;;;2.20;2.00;;;4.40;76.80;;;;;;5028196;28;20227;-77
2022/04/01 03:08:45;;;;;;;2.87;2.20;;;4.40;77.00;;;;;;5028031;28;20236;-80
2022/04/01 03:11:12;;;;;;;2.53;2.33;;;4.20;77.00;;;;;;5028360;28;20213;-77
2022/04/01 03:13:38;;;;;;;2.30;2.10;;;4.20;77.40;;;;;;5024844;28;20219;-78
2022/04/01 03:16:12;;;;;;;3.10;2.37;;;4.30;77.30;;;;;;5026765;28;20738;-79
2022/04/01 03:18:40;;;;;;;2.90;2.30;;;4.20;77.20;;;;;;5045212;28;20721;-78
2022/04/01 03:21:13;;;;;;;3.30;2.27;;;4.10;77.30;;;;;;5036410;28;20648;-78
2022/04/01 03:23:43;;;;;;;2.10;2.00;;;4.20;77.60;;;;;;5025424;28;20623;-79
2022/04/01 03:26:13;;;;;;;2.67;2.27;;;4.20;77.70;;;;;;5026521;28;20667;-78
2022/04/01 03:28:40;;;;;;;3.80;2.03;;;4.30;78.10;;;;;;5029644;28;20278;-78
2022/04/01 03:31:14;;;;;;;3.40;2.40;;;4.30;78.40;;;;;;5029933;28;20858;-77
2022/04/01 03:33:42;;;;;;;2.50;2.30;;;4.40;78.70;;;;;;5029905;28;20209;-78
2022/04/01 03:36:13;;;;;;;4.00;2.30;;;4.20;77.30;;;;;;5029945;28;20217;-78
2022/04/01 03:38:41;;;;;;;2.13;1.97;;;4.00;77.40;;;;;;5029621;28;20208;-78
2022/04/01 03:41:12;;;;;;;2.10;1.90;;;4.00;77.90;;;;;;5029803;28;20239;-78
2022/04/01 03:43:40;;;;;;;3.90;2.50;;;4.10;78.20;;;;;;5029642;28;20261;-78
2022/04/01 03:46:15;;;;;;;2.60;2.40;;;4.00;78.10;;;;;;5029548;28;20955;-78
2022/04/01 03:48:46;;;;;;;3.27;2.40;;;4.00;78.00;;;;;;5029641;28;20208;-78
2022/04/01 03:51:18;;;;;;;3.50;2.40;;;4.00;77.70;;;;;;5030325;28;20233;-77
2022/04/01 03:53:53;;;;;;;2.43;2.23;;;4.10;78.20;;;;;;5029801;28;20215;-78
2022/04/01 03:56:22;;;;;;;3.53;2.20;;;4.00;77.70;;;;;;5030152;28;20250;-78
2022/04/01 03:58:51;;;;;;;3.57;2.57;;;3.90;78.30;;;;;;5029081;28;20244;-78
2022/04/01 04:01:17;;;;;;;3.30;2.33;;;3.90;78.50;;;;;;5030851;28;20205;-78
2022/04/01 04:03:49;;;;;;;2.40;2.20;;;4.00;78.10;;;;;;5030697;28;20219;-78
2022/04/01 04:06:17;;;;;;;3.57;2.27;;;3.70;77.90;;;;;;5030558;28;20197;-78
2022/04/01 04:08:49;;;;;;;2.70;2.50;;;3.60;78.10;;;;;;5030416;28;20217;-77
2022/04/01 04:11:18;;;;;;;3.33;2.50;;;3.70;78.30;;;;;;5030945;28;20236;-77
2022/04/01 04:13:46;;;;;;;3.20;2.60;;;3.70;78.70;;;;;;5033092;28;20209;-78
2022/04/01 04:16:19;;;;;;;3.17;2.50;;;3.80;78.60;;;;;;5030903;28;20212;-77
2022/04/01 04:18:49;;;;;;;7.13;2.47;;;3.80;78.80;;;;;;5029689;28;20200;-77
2022/04/01 04:21:25;;;;;;;2.40;2.23;;;3.70;78.60;;;;;;5029622;28;20201;-77
2022/04/01 04:23:57;;;;;;;2.30;2.10;;;3.80;78.60;;;;;;5029329;28;20224;-77
2022/04/01 04:26:30;;;;;;;4.93;2.60;;;3.90;79.00;;;;;;5029375;28;20197;-80
2022/04/01 04:29:03;;;;;;;5.03;2.27;;;3.90;78.80;;;;;;5029382;28;20246;-77
2022/04/01 04:31:34;;;;;;;3.67;2.40;;;3.70;79.00;;;;;;5029278;28;20193;-77
2022/04/01 04:34:04;;;;;;;5.07;2.27;;;3.80;79.00;;;;;;5026767;28;20200;-77
2022/04/01 04:36:38;;;;;;;3.03;2.30;;;3.80;78.90;;;;;;5029524;28;20201;-77
2022/04/01 04:39:29;;;;;;;2.93;2.00;;;3.80;79.20;;;;;;5028571;28;20304;-77
2022/04/01 04:41:56;;;;;;;3.73;2.30;;;3.90;79.20;;;;;;5028692;28;20209;-76
2022/04/01 04:44:25;;;;;;;3.40;2.27;;;3.90;79.70;;;;;;5029015;28;20200;-77
2022/04/01 04:46:54;;;;;;;3.20;2.50;;;3.70;80.40;;;;;;5028324;28;20196;-76
2022/04/01 04:49:21;;;;;;;3.23;1.90;;;3.80;81.10;;;;;;5026320;28;20687;-77
2022/04/01 04:51:48;;;;;;;4.03;2.40;;;3.80;80.60;;;;;;5028635;28;20390;-77
2022/04/01 04:54:19;;;;;;;2.50;2.30;;;3.70;79.80;;;;;;5028293;28;20217;-77
2022/04/01 04:56:46;;;;;;;4.33;2.20;;;3.70;80.10;;;;;;5028475;28;20280;-77
2022/04/01 04:59:13;;;;;;;3.93;2.60;;;3.70;80.30;;;;;;5028248;28;20627;-77
2022/04/01 05:01:44;;;;;;;2.90;2.37;;;3.70;80.30;;;;;;5026341;28;20197;-77
2022/04/01 05:04:27;;;;;;;6.70;2.00;;;3.50;80.20;;;;;;5027588;28;20280;-78
2022/04/01 05:07:09;;;;;;;3.67;2.60;;;3.50;80.80;;;;;;5027908;28;20189;-78
2022/04/01 05:09:41;;;;;;;4.03;2.50;;;3.60;80.80;;;;;;5028569;28;20667;-77
2022/04/01 05:12:21;;;;;;;3.10;2.53;;;3.50;81.30;;;;;;5028575;28;20204;-77
2022/04/01 05:15:08;;;;;;;2.07;1.87;;;3.50;81.80;;;;;;5026553;28;20193;-77
2022/04/01 05:17:37;;;;;;;6.90;2.67;;;3.40;82.10;;;;;;5027515;28;20232;-77
2022/04/01 05:20:11;;;;;;;2.90;2.00;;;3.30;82.20;;;;;;4994525;28;1035815;-77
2022/04/01 05:22:48;;;;;;;4.87;2.50;;;3.50;82.60;;;;;;5028953;28;20204;-76
2022/04/01 05:25:20;;;;;;;3.23;2.10;;;3.50;82.50;;;;;;5029303;28;20197;-77
2022/04/01 05:27:50;;;;;;;3.90;2.40;;;3.50;82.60;;;;;;5029083;28;20213;-77
2022/04/01 05:30:20;;;;;;;2.93;2.10;;;3.50;82.60;;;;;;5028625;28;20725;-77
2022/04/01 05:32:59;;;;;;;2.63;2.13;;;3.50;82.60;;;;;;5029108;28;20276;-77
2022/04/01 05:35:31;;;;;;;2.33;2.13;;;3.60;82.40;;;;;;5027286;28;20683;-77
2022/04/01 05:38:00;;;;;;;2.63;2.07;;;3.70;82.50;;;;;;5029194;28;20664;-77
2022/04/01 05:40:29;;;;;;;1.97;1.83;;;3.70;82.50;;;;;;5028870;28;20294;-77
2022/04/01 05:42:57;;;;;;;2.83;2.37;;;3.70;82.40;;;;;;5028771;28;20626;-77
2022/04/01 05:45:26;;;;;;;4.57;2.57;;;3.70;82.30;;;;;;5028418;28;20203;-77
2022/04/01 05:47:55;;;;;;;2.33;1.90;;;3.70;82.50;;;;;;5022526;28;20659;-76
2022/04/01 05:50:22;;;;;;;2.20;2.00;;;3.70;84.20;;;;;;5028051;28;20228;-76
2022/04/01 05:52:51;;;;;;;2.70;2.07;;;3.70;83.60;;;;;;5028053;28;20625;-77
2022/04/01 05:55:21;;;;;;;2.83;2.43;;;3.60;84.30;;;;;;5028392;28;20208;-78
2022/04/01 05:57:49;;;;;;;2.23;2.03;;;3.70;84.00;;;;;;5025921;28;20197;-77
2022/04/01 06:00:16;;;;;;;6.07;2.60;;;3.60;83.70;;;;;;5027013;28;20196;-77
2022/04/01 06:03:18;;;;;;;3.83;2.10;;;3.60;83.70;;;;;;5023351;28;20201;-77
2022/04/01 06:05:51;;;;;;;2.33;1.90;;;3.50;83.70;;;;;;5018142;28;20775;-77
2022/04/01 06:08:22;;;;;;;2.87;2.00;;;3.60;84.10;;;;;;5028672;28;20197;-77
2022/04/01 06:11:01;;;;;;;2.00;1.80;;;3.60;84.20;;;;;;5028445;28;20638;-77
2022/04/01 06:13:40;;;;;;;4.47;2.07;;;3.60;84.10;;;;;;5026984;28;20281;-76
2022/04/01 06:16:20;;;;;;;4.30;1.97;;;3.60;83.60;;;;;;5019135;28;20197;-73
2022/04/01 06:18:53;;;;;;;2.60;2.40;;;3.70;84.50;;;;;;5015779;28;20203;-74
2022/04/01 06:21:23;;;;;;;2.63;1.63;;;3.70;85.80;;;;;;5034943;28;20220;-77
2022/04/01 06:24:07;;;;;;;6.83;1.80;;;3.80;85.10;;;;;;5028945;28;20212;-78
2022/04/01 06:26:39;;;;;;;2.30;2.00;;;3.90;84.30;;;;;;5028654;28;20193;-77
2022/04/01 06:29:20;;;;;;;1.80;1.67;;;3.80;83.20;;;;;;5025320;28;20189;-77
2022/04/01 06:31:52;;;;;;;2.23;1.90;;;3.70;83.50;;;;;;5026987;28;20213;-78
2022/04/01 06:34:22;;;;;;;2.33;1.80;;;3.70;83.50;;;;;;5028573;28;20239;-77
2022/04/01 06:36:52;;;;;;;1.90;1.60;;;3.70;83.50;;;;;;5027965;28;20659;-78
2022/04/01 06:39:27;;;;;;;7.17;2.50;;;3.80;83.60;;;;;;5028197;28;20647;-77
2022/04/01 06:41:57;;;;;;;4.30;2.53;;;3.80;83.30;;;;;;5028457;28;20193;-77
2022/04/01 06:44:25;;;;;;;2.00;1.67;;;3.80;82.90;;;;;;5024814;28;20292;-78
2022/04/01 06:46:51;;;;;;;2.50;2.10;;;3.90;83.40;;;;;;5027451;28;20628;-77
2022/04/01 06:49:18;;;;;;;4.53;1.90;;;3.90;83.60;;;;;;5027904;28;20671;-78
2022/04/01 06:51:46;;;;;;;3.80;1.80;;;3.90;83.70;;;;;;5027232;28;20228;-78
2022/04/01 06:54:12;;;;;;;4.80;2.17;;;3.90;83.60;;;;;;5027084;28;20300;-77
2022/04/01 06:56:39;;;;;;;2.47;1.87;;;4.00;83.00;;;;;;5027215;28;20209;-78
2022/04/01 06:59:06;;;;;;;4.07;1.93;;;3.90;83.10;;;;;;5026993;28;20726;-77
2022/04/01 07:01:34;;;;;;;2.17;1.70;;;4.00;82.70;;;;;;5027029;28;20219;-78
2022/04/01 07:04:01;;;;;;;3.13;1.90;;;4.10;83.00;;;;;;5027812;28;20680;-77
2022/04/01 07:06:28;;;;;;;3.63;1.57;;;4.00;83.00;;;;;;5027626;28;20660;-77
2022/04/01 07:08:55;;;;;;;14.70;3.17;;;4.20;83.20;;;;;;5027296;28;20576;-77
2022/04/01 07:11:22;;;;;;;4.50;2.33;;;4.10;82.30;;;;;;5027611;28;20306;-77
2022/04/01 07:13:49;;;;;;;3.37;1.50;;;4.30;82.40;;;;;;5027058;28;20255;-77
2022/04/01 07:16:15;;;;;;;2.73;1.97;;;4.30;81.70;;;;;;5026785;28;20274;-78
2022/04/01 07:18:43;;;;;;;1.73;1.63;;;4.30;81.50;;;;;;5027929;28;20258;-75
2022/04/01 07:21:13;;;;;;;3.00;2.00;;;4.30;81.90;;;;;;5027442;28;20185;-75
2022/04/01 07:23:40;;;;;;;2.70;2.17;;;4.40;82.40;;;;;;5027489;28;20204;-75
2022/04/01 07:26:13;;;;;;;3.67;1.87;;;4.30;82.50;;;;;;5027761;28;20609;-78
2022/04/01 07:28:39;;;;;;;3.27;1.43;;;4.30;82.00;;;;;;5027439;28;20205;-77
2022/04/01 07:33:57;;;;;;;2.70;2.00;;;4.50;80.40;;;;;;5027135;28;20246;-77
2022/04/01 07:36:24;;;;;;;2.07;1.53;;;4.50;80.80;;;;;;5027586;28;20660;-78
2022/04/01 07:38:51;;;;;;;2.27;2.07;;;4.60;81.10;;;;;;5027299;28;20671;-78
2022/04/01 07:41:18;;;;;;;1.87;1.77;;;4.60;80.90;;;;;;5027722;28;20217;-77
2022/04/01 07:43:45;;;;;;;5.97;2.13;;;4.70;80.80;;;;;;5024640;28;20251;-79
2022/04/01 07:46:11;;;;;;;4.40;2.20;;;4.80;81.10;;;;;;5027024;28;20193;-77
2022/04/01 07:48:38;;;;;;;3.17;1.50;;;4.90;80.50;;;;;;5027656;28;20201;-78
2022/04/01 07:51:15;;;;;;;2.13;1.90;;;4.80;79.70;;;;;;5024028;28;20233;-78
2022/04/01 07:53:42;;;;;;;4.00;1.77;;;4.80;79.70;;;;;;5026806;28;20205;-78
2022/04/01 07:56:11;;;;;;;2.23;1.73;;;4.90;80.00;;;;;;5027736;28;20271;-78
2022/04/01 07:58:38;;;;;;;1.50;1.40;;;5.00;80.00;;;;;;5025989;28;20205;-77
2022/04/01 08:01:11;;;;;;;2.77;1.33;;;5.10;79.60;;;;;;5024501;28;20208;-77
2022/04/01 08:03:41;;;;;;;5.73;1.70;;;5.10;78.50;;;;;;5027147;28;20204;-78
2022/04/01 08:06:15;;;;;;;2.00;1.50;;;5.20;78.50;;;;;;5022186;28;20597;-77
2022/04/01 08:08:42;;;;;;;2.27;1.67;;;5.10;78.60;;;;;;5026833;28;20222;-78
2022/04/01 08:11:15;;;;;;;3.97;1.80;;;5.20;79.10;;;;;;5026932;28;20229;-77
2022/04/01 08:13:42;;;;;;;3.90;1.60;;;5.30;78.80;;;;;;5029720;28;20204;-77
2022/04/01 08:16:15;;;;;;;1.90;1.30;;;5.30;78.20;;;;;;5030429;28;20204;-78
2022/04/01 08:18:41;;;;;;;7.43;2.10;;;5.40;77.70;;;;;;5032520;28;20228;-78
2022/04/01 08:21:16;;;;;;;1.10;1.10;;;5.40;76.20;;;;;;5030600;28;20197;-78
2022/04/01 08:23:42;;;;;;;6.03;2.47;;;5.50;77.00;;;;;;5030778;28;20287;-78
2022/04/01 08:26:15;;;;;;;1.67;1.40;;;5.50;75.40;;;;;;5030318;28;20205;-78
2022/04/01 08:28:42;;;;;;;3.30;1.83;;;5.50;75.20;;;;;;5030090;28;20204;-78
2022/04/01 08:31:18;;;;;;;2.80;1.90;;;5.60;74.80;;;;;;5029919;28;20229;-77
2022/04/01 08:33:45;;;;;;;2.67;1.50;;;5.60;74.50;;;;;;5027591;28;20200;-78
2022/04/01 08:36:13;;;;;;;3.13;1.53;;;5.60;73.30;;;;;;5030010;28;20581;-78
2022/04/01 08:38:41;;;;;;;1.63;1.40;;;5.70;73.50;;;;;;5029999;28;20209;-78
2022/04/01 08:41:19;;;;;;;6.43;2.03;;;5.60;72.40;;;;;;5029955;28;20296;-78
2022/04/01 08:43:47;;;;;;;6.27;1.90;;;5.70;73.00;;;;;;5022071;28;20307;-78
2022/04/01 08:46:16;;;;;;;2.20;1.70;;;5.70;72.30;;;;;;5029842;28;20201;-78
2022/04/01 08:48:44;;;;;;;7.20;2.00;;;5.80;71.90;;;;;;5029852;28;20573;-78
2022/04/01 08:51:16;;;;;;;2.03;1.20;;;5.80;71.90;;;;;;5030211;28;20230;-79
2022/04/01 08:53:46;;;;;;;3.40;1.17;;;5.90;72.30;;;;;;5031648;28;20231;-78
2022/04/01 08:56:14;;;;;;;1.50;1.40;;;5.90;71.00;;;;;;5031608;28;20232;-79
2022/04/01 08:58:41;;;;;;;3.53;1.33;;;5.90;70.80;;;;;;5029328;28;20205;-78
2022/04/01 09:01:17;;;;;;;4.03;1.43;;;6.00;71.20;;;;;;5029424;28;20197;-78
2022/04/01 09:03:44;;;;;;;2.30;1.50;;;6.10;71.60;;;;;;5029519;28;20197;-78
2022/04/01 09:06:14;;;;;;;2.77;1.33;;;6.10;71.80;;;;;;5030247;28;20556;-79
2022/04/01 09:08:42;;;;;;;2.00;1.40;;;6.10;71.10;;;;;;5029484;28;21116;-78
2022/04/01 09:11:18;;;;;;;4.50;1.37;;;6.30;71.00;;;;;;5029539;28;20275;-78
2022/04/01 09:13:50;;;;;;;1.67;1.27;;;6.30;71.00;;;;;;5024039;28;20286;-79
2022/04/01 09:16:26;;;;;;;2.13;1.77;;;6.20;67.90;;;;;;5029104;28;20197;-79
2022/04/01 09:18:55;;;;;;;1.37;1.27;;;6.30;68.10;;;;;;5032022;28;20604;-78
2022/04/01 09:21:26;;;;;;;2.10;1.30;;;6.30;67.40;;;;;;5029758;28;20204;-78
2022/04/01 09:23:53;;;;;;;2.47;1.60;;;6.40;67.00;;;;;;5028556;28;20208;-78
2022/04/01 09:26:23;;;;;;;4.03;1.30;;;6.50;67.60;;;;;;5029357;28;20201;-78
2022/04/01 09:28:53;;;;;;;2.73;1.50;;;6.60;67.40;;;;;;5029329;28;20539;-78
2022/04/01 09:31:20;;;;;;;6.07;1.50;;;6.60;66.30;;;;;;5028859;28;20235;-78
2022/04/01 09:33:49;;;;;;;3.13;1.30;;;6.60;65.90;;;;;;5029253;28;20205;-79
2022/04/01 09:36:18;;;;;;;9.40;2.00;;;6.60;66.20;;;;;;5029180;28;20197;-81
2022/04/01 09:38:59;;;;;;;7.43;2.00;;;6.60;66.10;;;;;;5025908;28;20197;-78
2022/04/01 09:41:33;;;;;;;2.60;1.40;;;6.50;65.40;;;;;;5027028;28;20201;-78
2022/04/01 09:44:09;;;;;;;2.77;1.47;;;6.50;65.40;;;;;;5028595;28;20199;-78
2022/04/01 09:46:40;;;;;;;2.07;1.37;;;6.50;66.20;;;;;;5029062;28;20201;-78
2022/04/01 09:49:07;;;;;;;1.90;1.70;;;6.70;67.10;;;;;;5027535;28;21037;-78
2022/04/01 09:51:35;;;;;;;3.00;1.40;;;6.80;66.30;;;;;;5030066;28;20228;-78
2022/04/01 09:54:03;;;;;;;4.03;1.27;;;7.00;67.10;;;;;;5028731;28;20217;-79
2022/04/01 09:56:43;;;;;;;3.00;1.53;;;7.00;66.10;;;;;;5028996;28;20213;-79
2022/04/01 09:59:11;;;;;;;2.37;1.40;;;7.10;66.40;;;;;;5023922;28;20224;-79
2022/04/01 10:01:39;;;;;;;4.93;1.57;;;7.10;65.70;;;;;;5028857;28;20298;-78
2022/04/01 10:04:06;;;;;;;5.57;1.53;;;7.10;63.70;;;;;;5026116;28;20224;-78
2022/04/01 10:06:34;;;;;;;4.00;1.70;;;7.10;64.30;;;;;;5028322;28;20209;-78
2022/04/01 10:09:04;;;;;;;2.03;1.47;;;7.20;65.50;;;;;;5026710;28;20248;-78
2022/04/01 10:11:31;;;;;;;5.90;1.70;;;7.30;66.00;;;;;;5027423;28;20637;-80
2022/04/01 10:14:03;;;;;;;1.67;1.57;;;7.40;65.10;;;;;;5029021;28;20831;-79
2022/04/01 10:16:31;;;;;;;3.37;1.60;;;7.40;64.70;;;;;;5028884;28;20193;-78
2022/04/01 10:19:03;;;;;;;2.20;1.50;;;7.50;65.40;;;;;;5033872;28;20247;-78
2022/04/01 10:21:31;;;;;;;2.00;1.60;;;7.50;66.30;;;;;;5043100;28;20197;-79
2022/04/01 10:24:03;;;;;;;19.47;3.53;;;7.60;66.30;;;;;;5023963;28;20200;-79
2022/04/01 10:26:33;;;;;;;4.60;1.93;;;7.70;65.00;;;;;;5027180;28;20243;-78
2022/04/01 10:29:02;;;;;;;1.90;1.40;;;7.70;64.50;;;;;;5026857;28;20257;-79
2022/04/01 10:31:29;;;;;;;5.97;1.60;;;7.70;64.60;;;;;;5026373;28;20304;-78
2022/04/01 10:34:20;;;;;;;5.63;2.00;;;7.70;64.30;;;;;;5025581;28;20212;-78
2022/04/01 10:36:54;;;;;;;8.13;1.87;;;7.70;64.80;;;;;;5023481;28;20838;-78
2022/04/01 10:39:21;;;;;;;7.30;1.60;;;7.80;64.90;;;;;;5023207;28;20258;-78
2022/04/01 10:42:06;;;;;;;5.10;1.70;;;7.90;65.60;;;;;;5025302;28;20209;-78
2022/04/01 10:44:50;;;;;;;3.27;1.73;;;8.00;65.60;;;;;;5025228;28;20372;-78
2022/04/01 10:47:18;;;;;;;2.80;1.73;;;8.20;64.40;;;;;;5025478;28;20325;-79
2022/04/01 10:52:30;;;;;;;4.30;1.80;;;8.30;64.60;;;;;;5024191;28;20244;-78
2022/04/01 10:55:16;;;;;;;8.70;2.10;;;8.30;65.40;;;;;;5025777;28;20200;-77
2022/04/01 10:57:45;;;;;;;3.30;1.93;;;8.30;63.60;;;;;;5018273;28;20765;-78
2022/04/01 11:00:16;;;;;;;1.70;1.60;;;8.30;64.40;;;;;;5025732;28;20204;-78
2022/04/01 11:02:44;;;;;;;6.63;1.57;;;8.40;64.60;;;;;;5023538;28;20196;-78
2022/04/01 11:05:25;;;;;;;2.57;1.90;;;8.50;64.10;;;;;;5025224;28;20196;-78
2022/04/01 11:08:15;;;;;;;4.13;1.47;;;8.60;62.80;;;;;;5024492;28;20663;-78
2022/04/01 11:11:01;;;;;;;8.90;2.80;;;8.60;62.30;;;;;;5023228;28;20209;-78
2022/04/01 11:13:30;;;;;;;3.73;2.27;;;8.50;62.20;;;;;;5024198;28;20201;-78
2022/04/01 11:16:16;;;;;;;2.07;1.50;;;8.70;63.00;;;;;;5025570;28;20208;-79
2022/04/01 11:19:14;;;;;;;5.50;1.70;;;8.80;61.40;;;;;;5027995;28;20200;-78
2022/04/01 11:21:41;;;;;;;1.67;1.27;;;8.80;61.60;;;;;;5045548;28;20222;-79
2022/04/01 11:24:41;;;;;;;12.87;1.97;;;8.90;60.40;;;;;;5029973;28;20212;-78
2022/04/01 11:27:22;;;;;;;1.63;1.53;;;8.90;60.00;;;;;;4926368;29;20381;-78
2022/04/01 11:30:08;;;;;;;6.93;1.70;;;9.00;61.00;;;;;;4996784;28;20676;-78
2022/04/01 11:32:35;;;;;;;4.07;1.07;;;9.10;60.40;;;;;;5016533;28;20240;-78
2022/04/01 11:35:02;;;;;;;1.53;1.33;;;9.20;59.40;;;;;;5026150;28;20200;-78
2022/04/01 11:37:30;;;;;;;3.77;1.43;;;9.20;59.10;;;;;;5025164;28;20705;-78
2022/04/01 11:40:07;;;;;;;2.80;1.43;;;9.30;60.00;;;;;;5025100;28;20805;-79
2022/04/01 11:42:33;;;;;;;2.60;1.50;;;9.50;59.90;;;;;;5027302;28;20220;-78
2022/04/01 11:45:01;;;;;;;7.33;1.63;;;9.50;59.00;;;;;;5043750;28;20258;-78
2022/04/01 11:47:34;;;;;;;2.53;1.83;;;9.60;58.80;;;;;;5006335;28;20201;-78
2022/04/01 11:50:08;;;;;;;1.50;1.40;;;9.50;58.10;;;;;;5017220;28;20231;-78
2022/04/01 11:52:39;;;;;;;4.90;1.60;;;9.50;57.80;;;;;;5028543;28;20286;-78
2022/04/01 11:55:11;;;;;;;2.00;1.20;;;9.50;57.50;;;;;;5031714;28;20264;-77
2022/04/01 11:57:38;;;;;;;3.93;1.70;;;9.40;57.30;;;;;;5035515;28;20243;-78
2022/04/01 12:00:10;;;;;;;1.70;1.60;;;9.50;57.80;;;;;;5030460;28;20201;-79
2022/04/01 12:02:39;;;;;;;6.73;1.70;;;9.60;57.30;;;;;;5033533;28;20201;-78
2022/04/01 12:05:06;;;;;;;1.77;1.47;;;9.60;57.80;;;;;;5028172;28;20205;-78
2022/04/01 12:10:21;;;;;;;1.63;1.40;;;9.80;58.10;;;;;;5025972;28;20695;-78
2022/04/01 12:12:56;;;;;;;4.73;1.67;;;9.80;57.60;;;;;;5027212;28;20765;-78
2022/04/01 12:15:34;;;;;;;5.47;1.60;;;9.90;57.90;;;;;;5029252;28;20259;-78
2022/04/01 12:18:05;;;;;;;2.30;1.30;;;10.00;57.90;;;;;;5028978;28;20208;-79
2022/04/01 12:20:32;;;;;;;2.03;1.60;;;10.10;57.60;;;;;;5026623;28;21007;-79
2022/04/01 12:23:00;;;;;;;4.43;1.30;;;10.20;57.70;;;;;;5028694;28;20209;-78
2022/04/01 12:25:29;;;;;;;1.87;1.47;;;10.30;57.60;;;;;;5029312;28;20208;-78
2022/04/01 12:27:57;;;;;;;2.07;1.43;;;10.40;57.80;;;;;;5029343;28;20204;-78
2022/04/01 12:30:35;;;;;;;3.10;1.70;;;10.50;58.50;;;;;;5028801;28;20216;-78
2022/04/01 12:33:06;;;;;;;5.57;1.50;;;10.50;58.40;;;;;;5028462;28;20607;-79
2022/04/01 12:35:33;;;;;;;4.03;1.50;;;10.50;56.50;;;;;;5028217;28;20197;-78
2022/04/01 12:38:05;;;;;;;3.23;1.50;;;10.40;55.70;;;;;;5028945;28;20298;-78
2022/04/01 12:40:56;;;;;;;3.37;1.43;;;10.40;55.60;;;;;;5012030;28;20213;-78
2022/04/01 12:43:35;;;;;;;3.40;1.37;;;10.30;55.40;;;;;;5012043;28;20216;-79
2022/04/01 12:46:03;;;;;;;3.37;1.53;;;10.20;55.50;;;;;;5027892;28;20201;-78
2022/04/01 12:48:39;;;;;;;3.93;1.40;;;10.00;55.20;;;;;;5028284;28;20240;-78
2022/04/01 12:53:54;;;;;;;10.50;2.60;;;9.80;57.50;;;;;;5026073;28;20248;-78
2022/04/01 12:56:22;;;;;;;3.63;1.57;;;10.00;58.80;;;;;;5027979;28;20216;-79
2022/04/01 12:58:50;;;;;;;1.70;1.60;;;10.20;58.50;;;;;;5027508;28;20225;-78
2022/04/01 13:01:22;;;;;;;8.23;2.20;;;10.40;58.80;;;;;;5027644;28;20571;-78
2022/04/01 13:03:50;;;;;;;4.17;1.70;;;10.50;57.20;;;;;;5027360;28;20681;-77
2022/04/01 13:06:17;;;;;;;9.27;1.80;;;10.60;56.30;;;;;;5027348;28;20209;-77
2022/04/01 13:08:44;;;;;;;5.23;1.50;;;10.70;56.30;;;;;;5027371;28;20216;-77
2022/04/01 13:11:13;;;;;;;12.13;1.50;;;10.60;55.60;;;;;;5027473;28;20528;-77
2022/04/01 13:13:40;;;;;;;5.37;1.80;;;10.60;55.30;;;;;;5027811;28;20240;-77
2022/04/01 13:16:14;;;;;;;2.00;1.53;;;10.80;56.60;;;;;;5027715;28;20204;-78
2022/04/01 13:18:41;;;;;;;3.30;1.57;;;11.00;58.00;;;;;;5030275;28;20244;-77
2022/04/01 13:21:13;;;;;;;2.77;1.40;;;11.00;58.20;;;;;;5047928;28;20227;-77
2022/04/01 13:23:39;;;;;;;3.57;1.73;;;11.10;58.00;;;;;;5035351;28;20599;-77
2022/04/01 13:26:09;;;;;;;2.43;1.43;;;11.20;58.40;;;;;;5027664;28;20209;-77